sensor_id;sensor_type;location;lat;lon;timestamp;P1;durP1;ratioP1;P2;durP2;ratioP2
74849;SDS011;63397;47.480;19.238;2023-12-29T00:01:29;17.20;;;7.65;;
74849;SDS011;63397;47.480;19.238;2023-12-29T00:04:32;19.90;;;11.57;;
74849;SDS011;63397;47.480;19.238;2023-12-29T00:07:34;17.88;;;11.00;;
74849;SDS011;63397;47.480;19.238;2023-12-29T00:10:37;17.63;;;8.95;;
74849;SDS011;63397;47.480;19.238;2023-12-29T00:13:39;25.40;;;9.77;;
74849;SDS011;63397;47.480;19.238;2023-12-29T00:16:41;14.57;;;7.70;;
74849;SDS011;63397;47.480;19.238;2023-12-29T00:19:44;18.23;;;8.47;;
74849;SDS011;63397;47.480;19.238;2023-12-29T00:22:47;13.35;;;7.45;;
74849;SDS011;63397;47.480;19.238;2023-12-29T00:25:49;19.85;;;7.93;;
74849;SDS011;63397;47.480;19.238;2023-12-29T00:28:51;19.23;;;8.40;;
74849;SDS011;63397;47.480;19.238;2023-12-29T00:31:53;21.40;;;7.53;;
74849;SDS011;63397;47.480;19.238;2023-12-29T00:34:56;18.83;;;9.20;;
74849;SDS011;63397;47.480;19.238;2023-12-29T00:37:58;20.23;;;9.45;;
74849;SDS011;63397;47.480;19.238;2023-12-29T00:41:01;16.88;;;7.88;;
74849;SDS011;63397;47.480;19.238;2023-12-29T00:44:03;16.35;;;8.05;;
74849;SDS011;63397;47.480;19.238;2023-12-29T00:47:06;17.95;;;8.27;;
74849;SDS011;63397;47.480;19.238;2023-12-29T00:50:08;17.53;;;8.40;;
74849;SDS011;63397;47.480;19.238;2023-12-29T00:53:10;22.73;;;9.77;;
74849;SDS011;63397;47.480;19.238;2023-12-29T00:56:13;16.88;;;8.70;;
74849;SDS011;63397;47.480;19.238;2023-12-29T00:59:15;21.13;;;8.20;;
74849;SDS011;63397;47.480;19.238;2023-12-29T01:02:18;17.23;;;8.95;;
74849;SDS011;63397;47.480;19.238;2023-12-29T01:05:20;20.73;;;12.53;;
74849;SDS011;63397;47.480;19.238;2023-12-29T01:08:23;20.83;;;8.07;;
74849;SDS011;63397;47.480;19.238;2023-12-29T01:11:25;19.08;;;7.18;;
74849;SDS011;63397;47.480;19.238;2023-12-29T01:14:27;21.98;;;8.57;;
74849;SDS011;63397;47.480;19.238;2023-12-29T01:17:29;11.57;;;7.90;;
74849;SDS011;63397;47.480;19.238;2023-12-29T01:20:32;15.67;;;8.03;;
74849;SDS011;63397;47.480;19.238;2023-12-29T01:23:34;18.73;;;8.40;;
74849;SDS011;63397;47.480;19.238;2023-12-29T01:26:37;20.98;;;8.68;;
74849;SDS011;63397;47.480;19.238;2023-12-29T01:29:40;18.23;;;8.13;;
74849;SDS011;63397;47.480;19.238;2023-12-29T01:32:42;21.38;;;7.93;;
74849;SDS011;63397;47.480;19.238;2023-12-29T01:35:45;17.13;;;5.73;;
74849;SDS011;63397;47.480;19.238;2023-12-29T01:38:49;17.75;;;7.43;;
74849;SDS011;63397;47.480;19.238;2023-12-29T01:41:52;16.55;;;7.72;;
74849;SDS011;63397;47.480;19.238;2023-12-29T01:44:54;14.10;;;8.43;;
74849;SDS011;63397;47.480;19.238;2023-12-29T01:47:56;16.92;;;7.35;;
74849;SDS011;63397;47.480;19.238;2023-12-29T01:50:59;14.97;;;7.90;;
74849;SDS011;63397;47.480;19.238;2023-12-29T01:54:01;16.15;;;6.97;;
74849;SDS011;63397;47.480;19.238;2023-12-29T01:57:04;20.52;;;8.77;;
74849;SDS011;63397;47.480;19.238;2023-12-29T02:00:07;18.52;;;8.32;;
74849;SDS011;63397;47.480;19.238;2023-12-29T02:03:13;23.20;;;9.10;;
74849;SDS011;63397;47.480;19.238;2023-12-29T02:06:15;23.33;;;9.60;;
74849;SDS011;63397;47.480;19.238;2023-12-29T02:09:18;17.50;;;7.95;;
74849;SDS011;63397;47.480;19.238;2023-12-29T02:12:20;23.00;;;9.23;;
74849;SDS011;63397;47.480;19.238;2023-12-29T02:15:23;17.95;;;8.80;;
74849;SDS011;63397;47.480;19.238;2023-12-29T02:18:25;17.75;;;7.55;;
74849;SDS011;63397;47.480;19.238;2023-12-29T02:21:29;21.63;;;9.30;;
74849;SDS011;63397;47.480;19.238;2023-12-29T02:24:32;19.73;;;8.43;;
74849;SDS011;63397;47.480;19.238;2023-12-29T02:27:43;21.40;;;8.70;;
74849;SDS011;63397;47.480;19.238;2023-12-29T02:30:56;27.00;;;11.07;;
74849;SDS011;63397;47.480;19.238;2023-12-29T02:34:01;19.42;;;9.10;;
74849;SDS011;63397;47.480;19.238;2023-12-29T02:37:05;19.70;;;8.07;;
74849;SDS011;63397;47.480;19.238;2023-12-29T02:40:07;14.13;;;6.45;;
74849;SDS011;63397;47.480;19.238;2023-12-29T02:43:10;14.82;;;5.90;;
74849;SDS011;63397;47.480;19.238;2023-12-29T02:46:13;13.43;;;6.72;;
74849;SDS011;63397;47.480;19.238;2023-12-29T02:49:16;16.73;;;8.40;;
74849;SDS011;63397;47.480;19.238;2023-12-29T02:52:18;17.07;;;7.17;;
74849;SDS011;63397;47.480;19.238;2023-12-29T02:55:20;17.95;;;8.45;;
74849;SDS011;63397;47.480;19.238;2023-12-29T02:58:23;15.90;;;8.95;;
74849;SDS011;63397;47.480;19.238;2023-12-29T03:01:25;12.50;;;7.40;;
74849;SDS011;63397;47.480;19.238;2023-12-29T03:04:29;13.75;;;7.13;;
74849;SDS011;63397;47.480;19.238;2023-12-29T03:07:31;14.97;;;7.23;;
74849;SDS011;63397;47.480;19.238;2023-12-29T03:10:33;13.93;;;6.53;;
74849;SDS011;63397;47.480;19.238;2023-12-29T03:13:36;17.05;;;8.23;;
74849;SDS011;63397;47.480;19.238;2023-12-29T03:16:38;11.35;;;5.88;;
74849;SDS011;63397;47.480;19.238;2023-12-29T03:19:40;19.20;;;9.23;;
74849;SDS011;63397;47.480;19.238;2023-12-29T03:22:43;15.37;;;7.97;;
74849;SDS011;63397;47.480;19.238;2023-12-29T03:25:47;13.95;;;6.07;;
74849;SDS011;63397;47.480;19.238;2023-12-29T03:28:49;13.90;;;8.20;;
74849;SDS011;63397;47.480;19.238;2023-12-29T03:31:53;11.05;;;6.35;;
74849;SDS011;63397;47.480;19.238;2023-12-29T03:34:55;17.00;;;7.20;;
74849;SDS011;63397;47.480;19.238;2023-12-29T03:37:58;11.27;;;5.83;;
74849;SDS011;63397;47.480;19.238;2023-12-29T03:41:00;11.15;;;6.90;;
74849;SDS011;63397;47.480;19.238;2023-12-29T03:44:02;16.65;;;6.03;;
74849;SDS011;63397;47.480;19.238;2023-12-29T03:47:05;14.15;;;6.47;;
74849;SDS011;63397;47.480;19.238;2023-12-29T03:50:07;10.82;;;5.85;;
74849;SDS011;63397;47.480;19.238;2023-12-29T03:53:10;13.47;;;6.43;;
74849;SDS011;63397;47.480;19.238;2023-12-29T03:56:15;11.38;;;5.72;;
74849;SDS011;63397;47.480;19.238;2023-12-29T03:59:18;14.85;;;7.22;;
74849;SDS011;63397;47.480;19.238;2023-12-29T04:02:21;9.77;;;6.50;;
74849;SDS011;63397;47.480;19.238;2023-12-29T04:05:23;16.20;;;7.15;;
74849;SDS011;63397;47.480;19.238;2023-12-29T04:08:25;11.37;;;5.67;;
74849;SDS011;63397;47.480;19.238;2023-12-29T04:11:27;13.70;;;6.80;;
74849;SDS011;63397;47.480;19.238;2023-12-29T04:14:30;11.80;;;5.70;;
74849;SDS011;63397;47.480;19.238;2023-12-29T04:17:32;13.95;;;6.25;;
74849;SDS011;63397;47.480;19.238;2023-12-29T04:20:34;9.32;;;5.05;;
74849;SDS011;63397;47.480;19.238;2023-12-29T04:23:37;10.47;;;5.07;;
74849;SDS011;63397;47.480;19.238;2023-12-29T04:26:39;12.95;;;6.95;;
74849;SDS011;63397;47.480;19.238;2023-12-29T04:29:42;10.00;;;4.28;;
74849;SDS011;63397;47.480;19.238;2023-12-29T04:32:45;9.95;;;6.47;;
74849;SDS011;63397;47.480;19.238;2023-12-29T04:35:47;12.55;;;5.53;;
74849;SDS011;63397;47.480;19.238;2023-12-29T04:38:50;13.83;;;6.20;;
74849;SDS011;63397;47.480;19.238;2023-12-29T04:41:52;13.23;;;5.78;;
74849;SDS011;63397;47.480;19.238;2023-12-29T04:44:54;12.63;;;7.07;;
74849;SDS011;63397;47.480;19.238;2023-12-29T04:47:57;17.60;;;6.05;;
74849;SDS011;63397;47.480;19.238;2023-12-29T04:50:59;13.75;;;6.40;;
74849;SDS011;63397;47.480;19.238;2023-12-29T04:54:02;12.37;;;7.17;;
74849;SDS011;63397;47.480;19.238;2023-12-29T04:57:04;13.90;;;6.90;;
74849;SDS011;63397;47.480;19.238;2023-12-29T05:00:06;14.68;;;7.32;;
74849;SDS011;63397;47.480;19.238;2023-12-29T05:03:09;12.95;;;7.45;;
74849;SDS011;63397;47.480;19.238;2023-12-29T05:06:11;12.82;;;5.88;;
74849;SDS011;63397;47.480;19.238;2023-12-29T05:09:13;12.17;;;6.17;;
74849;SDS011;63397;47.480;19.238;2023-12-29T05:12:16;15.20;;;6.18;;
74849;SDS011;63397;47.480;19.238;2023-12-29T05:15:18;11.10;;;5.75;;
74849;SDS011;63397;47.480;19.238;2023-12-29T05:18:20;12.68;;;6.07;;
74849;SDS011;63397;47.480;19.238;2023-12-29T05:21:22;17.35;;;5.45;;
74849;SDS011;63397;47.480;19.238;2023-12-29T05:24:26;10.90;;;5.97;;
74849;SDS011;63397;47.480;19.238;2023-12-29T05:27:28;12.05;;;6.93;;
74849;SDS011;63397;47.480;19.238;2023-12-29T05:30:30;13.48;;;7.43;;
74849;SDS011;63397;47.480;19.238;2023-12-29T05:33:35;11.52;;;5.65;;
74849;SDS011;63397;47.480;19.238;2023-12-29T05:36:37;15.00;;;5.65;;
74849;SDS011;63397;47.480;19.238;2023-12-29T05:39:44;14.30;;;6.17;;
74849;SDS011;63397;47.480;19.238;2023-12-29T05:42:46;14.80;;;6.55;;
74849;SDS011;63397;47.480;19.238;2023-12-29T05:45:48;13.68;;;6.75;;
74849;SDS011;63397;47.480;19.238;2023-12-29T05:48:51;12.73;;;6.53;;
74849;SDS011;63397;47.480;19.238;2023-12-29T05:51:55;15.45;;;8.13;;
74849;SDS011;63397;47.480;19.238;2023-12-29T05:54:57;12.83;;;6.87;;
74849;SDS011;63397;47.480;19.238;2023-12-29T05:58:00;16.17;;;7.57;;
74849;SDS011;63397;47.480;19.238;2023-12-29T06:01:02;24.27;;;8.88;;
74849;SDS011;63397;47.480;19.238;2023-12-29T06:04:05;16.88;;;7.68;;
74849;SDS011;63397;47.480;19.238;2023-12-29T06:07:07;21.00;;;8.63;;
74849;SDS011;63397;47.480;19.238;2023-12-29T06:10:11;14.60;;;7.00;;
74849;SDS011;63397;47.480;19.238;2023-12-29T06:13:13;14.63;;;6.00;;
74849;SDS011;63397;47.480;19.238;2023-12-29T06:16:17;14.40;;;6.88;;
74849;SDS011;63397;47.480;19.238;2023-12-29T06:19:20;10.52;;;6.82;;
74849;SDS011;63397;47.480;19.238;2023-12-29T06:22:22;13.02;;;6.80;;
74849;SDS011;63397;47.480;19.238;2023-12-29T06:25:24;10.73;;;6.73;;
74849;SDS011;63397;47.480;19.238;2023-12-29T06:28:27;18.15;;;7.15;;
74849;SDS011;63397;47.480;19.238;2023-12-29T06:31:30;18.95;;;8.27;;
74849;SDS011;63397;47.480;19.238;2023-12-29T06:34:32;18.33;;;7.78;;
74849;SDS011;63397;47.480;19.238;2023-12-29T06:37:35;13.88;;;8.65;;
74849;SDS011;63397;47.480;19.238;2023-12-29T06:40:38;19.10;;;6.70;;
74849;SDS011;63397;47.480;19.238;2023-12-29T06:43:40;17.58;;;8.32;;
74849;SDS011;63397;47.480;19.238;2023-12-29T06:46:43;12.48;;;7.03;;
74849;SDS011;63397;47.480;19.238;2023-12-29T06:49:45;12.20;;;6.85;;
74849;SDS011;63397;47.480;19.238;2023-12-29T06:52:47;15.98;;;6.78;;
74849;SDS011;63397;47.480;19.238;2023-12-29T06:55:50;16.27;;;7.67;;
74849;SDS011;63397;47.480;19.238;2023-12-29T06:58:52;12.68;;;6.78;;
74849;SDS011;63397;47.480;19.238;2023-12-29T07:01:54;15.73;;;6.60;;
74849;SDS011;63397;47.480;19.238;2023-12-29T07:04:57;18.30;;;5.68;;
74849;SDS011;63397;47.480;19.238;2023-12-29T07:07:59;10.40;;;4.82;;
74849;SDS011;63397;47.480;19.238;2023-12-29T07:11:02;13.03;;;6.37;;
74849;SDS011;63397;47.480;19.238;2023-12-29T07:14:04;8.57;;;5.38;;
74849;SDS011;63397;47.480;19.238;2023-12-29T07:17:07;14.32;;;6.70;;
74849;SDS011;63397;47.480;19.238;2023-12-29T07:20:09;17.25;;;6.50;;
74849;SDS011;63397;47.480;19.238;2023-12-29T07:23:11;11.50;;;7.05;;
74849;SDS011;63397;47.480;19.238;2023-12-29T07:26:14;14.10;;;7.57;;
74849;SDS011;63397;47.480;19.238;2023-12-29T07:29:16;12.73;;;7.93;;
74849;SDS011;63397;47.480;19.238;2023-12-29T07:32:18;20.02;;;7.22;;
74849;SDS011;63397;47.480;19.238;2023-12-29T07:35:20;16.35;;;7.45;;
74849;SDS011;63397;47.480;19.238;2023-12-29T07:38:23;17.10;;;9.27;;
74849;SDS011;63397;47.480;19.238;2023-12-29T07:41:26;13.60;;;7.57;;
74849;SDS011;63397;47.480;19.238;2023-12-29T07:44:28;16.40;;;6.85;;
74849;SDS011;63397;47.480;19.238;2023-12-29T07:47:31;14.63;;;7.15;;
74849;SDS011;63397;47.480;19.238;2023-12-29T07:50:34;22.85;;;8.32;;
74849;SDS011;63397;47.480;19.238;2023-12-29T07:53:36;15.52;;;7.43;;
74849;SDS011;63397;47.480;19.238;2023-12-29T07:56:38;13.93;;;6.37;;
74849;SDS011;63397;47.480;19.238;2023-12-29T07:59:41;22.63;;;8.75;;
74849;SDS011;63397;47.480;19.238;2023-12-29T08:02:43;14.10;;;6.88;;
74849;SDS011;63397;47.480;19.238;2023-12-29T08:05:45;14.15;;;6.90;;
74849;SDS011;63397;47.480;19.238;2023-12-29T08:08:48;11.85;;;6.68;;
74849;SDS011;63397;47.480;19.238;2023-12-29T08:11:50;18.87;;;9.13;;
74849;SDS011;63397;47.480;19.238;2023-12-29T08:14:52;16.80;;;7.38;;
74849;SDS011;63397;47.480;19.238;2023-12-29T08:17:55;25.40;;;8.00;;
74849;SDS011;63397;47.480;19.238;2023-12-29T08:20:58;14.88;;;7.50;;
74849;SDS011;63397;47.480;19.238;2023-12-29T08:24:01;15.45;;;7.82;;
74849;SDS011;63397;47.480;19.238;2023-12-29T08:27:04;14.70;;;7.10;;
74849;SDS011;63397;47.480;19.238;2023-12-29T08:30:06;17.92;;;7.13;;
74849;SDS011;63397;47.480;19.238;2023-12-29T08:33:09;16.50;;;8.70;;
74849;SDS011;63397;47.480;19.238;2023-12-29T08:36:11;16.50;;;8.68;;
74849;SDS011;63397;47.480;19.238;2023-12-29T08:39:14;18.90;;;8.55;;
74849;SDS011;63397;47.480;19.238;2023-12-29T08:42:17;17.63;;;7.30;;
74849;SDS011;63397;47.480;19.238;2023-12-29T08:45:19;20.38;;;8.27;;
74849;SDS011;63397;47.480;19.238;2023-12-29T08:48:21;20.45;;;10.10;;
74849;SDS011;63397;47.480;19.238;2023-12-29T08:51:23;15.75;;;7.97;;
74849;SDS011;63397;47.480;19.238;2023-12-29T08:54:26;18.80;;;9.38;;
74849;SDS011;63397;47.480;19.238;2023-12-29T08:57:30;21.40;;;8.77;;
74849;SDS011;63397;47.480;19.238;2023-12-29T09:00:33;19.02;;;10.63;;
74849;SDS011;63397;47.480;19.238;2023-12-29T09:03:36;19.40;;;8.15;;
74849;SDS011;63397;47.480;19.238;2023-12-29T09:06:38;14.82;;;8.75;;
74849;SDS011;63397;47.480;19.238;2023-12-29T09:09:40;22.20;;;9.35;;
74849;SDS011;63397;47.480;19.238;2023-12-29T09:12:43;20.37;;;8.63;;
74849;SDS011;63397;47.480;19.238;2023-12-29T09:15:46;21.25;;;9.43;;
74849;SDS011;63397;47.480;19.238;2023-12-29T09:18:48;15.25;;;8.18;;
74849;SDS011;63397;47.480;19.238;2023-12-29T09:21:50;15.50;;;7.45;;
74849;SDS011;63397;47.480;19.238;2023-12-29T09:24:53;14.15;;;7.80;;
74849;SDS011;63397;47.480;19.238;2023-12-29T09:27:56;17.10;;;7.63;;
74849;SDS011;63397;47.480;19.238;2023-12-29T09:30:58;14.80;;;7.15;;
74849;SDS011;63397;47.480;19.238;2023-12-29T09:34:01;16.02;;;7.32;;
74849;SDS011;63397;47.480;19.238;2023-12-29T09:37:03;17.48;;;8.38;;
74849;SDS011;63397;47.480;19.238;2023-12-29T09:40:05;18.60;;;7.95;;
74849;SDS011;63397;47.480;19.238;2023-12-29T09:43:08;15.50;;;8.50;;
74849;SDS011;63397;47.480;19.238;2023-12-29T09:46:11;18.60;;;8.30;;
74849;SDS011;63397;47.480;19.238;2023-12-29T09:49:16;21.20;;;9.25;;
74849;SDS011;63397;47.480;19.238;2023-12-29T09:52:20;19.48;;;9.63;;
74849;SDS011;63397;47.480;19.238;2023-12-29T09:55:23;20.77;;;9.27;;
74849;SDS011;63397;47.480;19.238;2023-12-29T09:58:26;23.60;;;10.57;;
74849;SDS011;63397;47.480;19.238;2023-12-29T10:01:28;21.63;;;10.27;;
74849;SDS011;63397;47.480;19.238;2023-12-29T10:04:32;21.55;;;9.48;;
74849;SDS011;63397;47.480;19.238;2023-12-29T10:07:35;15.95;;;7.60;;
74849;SDS011;63397;47.480;19.238;2023-12-29T10:10:39;21.92;;;9.48;;
74849;SDS011;63397;47.480;19.238;2023-12-29T10:13:43;18.40;;;9.63;;
74849;SDS011;63397;47.480;19.238;2023-12-29T10:16:52;18.05;;;9.48;;
74849;SDS011;63397;47.480;19.238;2023-12-29T10:20:08;19.45;;;9.00;;
74849;SDS011;63397;47.480;19.238;2023-12-29T10:23:15;16.60;;;7.80;;
74849;SDS011;63397;47.480;19.238;2023-12-29T10:26:19;18.25;;;7.50;;
74849;SDS011;63397;47.480;19.238;2023-12-29T10:29:21;15.90;;;6.33;;
74849;SDS011;63397;47.480;19.238;2023-12-29T10:32:24;13.57;;;5.60;;
74849;SDS011;63397;47.480;19.238;2023-12-29T10:35:26;16.05;;;6.80;;
74849;SDS011;63397;47.480;19.238;2023-12-29T10:38:29;17.55;;;7.30;;
74849;SDS011;63397;47.480;19.238;2023-12-29T10:41:32;14.40;;;6.75;;
74849;SDS011;63397;47.480;19.238;2023-12-29T10:44:35;13.07;;;6.43;;
74849;SDS011;63397;47.480;19.238;2023-12-29T10:47:37;14.80;;;6.72;;
74849;SDS011;63397;47.480;19.238;2023-12-29T10:50:45;16.95;;;6.82;;
74849;SDS011;63397;47.480;19.238;2023-12-29T10:53:54;15.65;;;7.25;;
74849;SDS011;63397;47.480;19.238;2023-12-29T10:57:02;16.30;;;7.85;;
74849;SDS011;63397;47.480;19.238;2023-12-29T11:00:07;13.90;;;5.80;;
74849;SDS011;63397;47.480;19.238;2023-12-29T11:03:14;12.30;;;5.22;;
74849;SDS011;63397;47.480;19.238;2023-12-29T11:06:17;11.73;;;5.18;;
74849;SDS011;63397;47.480;19.238;2023-12-29T11:09:34;11.07;;;4.90;;
74849;SDS011;63397;47.480;19.238;2023-12-29T11:12:37;12.57;;;4.32;;
74849;SDS011;63397;47.480;19.238;2023-12-29T11:15:41;9.03;;;3.87;;
74849;SDS011;63397;47.480;19.238;2023-12-29T11:18:44;10.15;;;4.53;;
74849;SDS011;63397;47.480;19.238;2023-12-29T11:21:47;7.28;;;3.55;;
74849;SDS011;63397;47.480;19.238;2023-12-29T11:24:50;9.70;;;4.00;;
74849;SDS011;63397;47.480;19.238;2023-12-29T11:27:52;13.77;;;4.38;;
74849;SDS011;63397;47.480;19.238;2023-12-29T11:30:55;10.03;;;4.07;;
74849;SDS011;63397;47.480;19.238;2023-12-29T11:34:00;10.20;;;4.47;;
74849;SDS011;63397;47.480;19.238;2023-12-29T11:37:11;9.13;;;3.47;;
74849;SDS011;63397;47.480;19.238;2023-12-29T11:43:21;10.95;;;3.72;;
74849;SDS011;63397;47.480;19.238;2023-12-29T11:46:36;18.97;;;4.40;;
74849;SDS011;63397;47.480;19.238;2023-12-29T11:49:58;8.60;;;3.78;;
74849;SDS011;63397;47.480;19.238;2023-12-29T11:53:02;9.25;;;3.65;;
74849;SDS011;63397;47.480;19.238;2023-12-29T11:56:14;8.50;;;4.10;;
74849;SDS011;63397;47.480;19.238;2023-12-29T11:59:20;8.75;;;3.83;;
74849;SDS011;63397;47.480;19.238;2023-12-29T12:02:28;11.60;;;4.60;;
74849;SDS011;63397;47.480;19.238;2023-12-29T12:05:47;10.63;;;4.68;;
74849;SDS011;63397;47.480;19.238;2023-12-29T12:08:50;10.23;;;4.55;;
74849;SDS011;63397;47.480;19.238;2023-12-29T12:12:12;11.48;;;4.93;;
74849;SDS011;63397;47.480;19.238;2023-12-29T12:18:28;13.53;;;4.93;;
74849;SDS011;63397;47.480;19.238;2023-12-29T12:21:33;14.63;;;5.95;;
74849;SDS011;63397;47.480;19.238;2023-12-29T12:24:36;12.65;;;6.15;;
74849;SDS011;63397;47.480;19.238;2023-12-29T12:27:39;13.00;;;6.07;;
74849;SDS011;63397;47.480;19.238;2023-12-29T12:30:41;14.25;;;5.65;;
74849;SDS011;63397;47.480;19.238;2023-12-29T12:33:52;13.03;;;6.17;;
74849;SDS011;63397;47.480;19.238;2023-12-29T12:36:55;12.63;;;5.75;;
74849;SDS011;63397;47.480;19.238;2023-12-29T12:39:59;15.23;;;6.70;;
74849;SDS011;63397;47.480;19.238;2023-12-29T12:43:01;14.57;;;6.32;;
74849;SDS011;63397;47.480;19.238;2023-12-29T12:46:04;15.18;;;5.80;;
74849;SDS011;63397;47.480;19.238;2023-12-29T12:49:11;15.63;;;6.77;;
74849;SDS011;63397;47.480;19.238;2023-12-29T12:52:14;14.65;;;6.70;;
74849;SDS011;63397;47.480;19.238;2023-12-29T12:55:16;14.98;;;6.63;;
74849;SDS011;63397;47.480;19.238;2023-12-29T12:58:19;14.80;;;6.68;;
74849;SDS011;63397;47.480;19.238;2023-12-29T13:01:25;16.63;;;6.22;;
74849;SDS011;63397;47.480;19.238;2023-12-29T13:04:29;15.40;;;6.60;;
74849;SDS011;63397;47.480;19.238;2023-12-29T13:07:31;14.68;;;6.90;;
74849;SDS011;63397;47.480;19.238;2023-12-29T13:10:34;15.20;;;6.70;;
74849;SDS011;63397;47.480;19.238;2023-12-29T13:13:37;15.25;;;6.30;;
74849;SDS011;63397;47.480;19.238;2023-12-29T13:16:39;16.50;;;7.07;;
74849;SDS011;63397;47.480;19.238;2023-12-29T13:19:42;13.20;;;6.40;;
74849;SDS011;63397;47.480;19.238;2023-12-29T13:22:46;18.42;;;7.30;;
74849;SDS011;63397;47.480;19.238;2023-12-29T13:25:49;15.50;;;7.47;;
74849;SDS011;63397;47.480;19.238;2023-12-29T13:28:56;14.70;;;6.55;;
74849;SDS011;63397;47.480;19.238;2023-12-29T13:32:19;20.15;;;7.15;;
74849;SDS011;63397;47.480;19.238;2023-12-29T13:35:30;17.23;;;7.17;;
74849;SDS011;63397;47.480;19.238;2023-12-29T13:38:36;16.77;;;6.53;;
74849;SDS011;63397;47.480;19.238;2023-12-29T13:41:40;15.10;;;6.95;;
74849;SDS011;63397;47.480;19.238;2023-12-29T13:44:43;16.52;;;7.45;;
74849;SDS011;63397;47.480;19.238;2023-12-29T13:47:46;15.07;;;7.57;;
74849;SDS011;63397;47.480;19.238;2023-12-29T13:50:49;14.57;;;6.27;;
74849;SDS011;63397;47.480;19.238;2023-12-29T13:53:58;14.80;;;6.95;;
74849;SDS011;63397;47.480;19.238;2023-12-29T13:57:01;12.50;;;6.32;;
74849;SDS011;63397;47.480;19.238;2023-12-29T14:00:14;14.95;;;6.60;;
74849;SDS011;63397;47.480;19.238;2023-12-29T14:03:23;14.98;;;6.13;;
74849;SDS011;63397;47.480;19.238;2023-12-29T14:06:29;13.63;;;6.73;;
74849;SDS011;63397;47.480;19.238;2023-12-29T14:09:34;13.48;;;6.88;;
74849;SDS011;63397;47.480;19.238;2023-12-29T14:12:36;15.15;;;7.05;;
74849;SDS011;63397;47.480;19.238;2023-12-29T14:15:39;20.35;;;6.80;;
74849;SDS011;63397;47.480;19.238;2023-12-29T14:21:54;18.07;;;7.37;;
74849;SDS011;63397;47.480;19.238;2023-12-29T14:25:00;16.85;;;7.45;;
74849;SDS011;63397;47.480;19.238;2023-12-29T14:28:04;17.63;;;7.55;;
74849;SDS011;63397;47.480;19.238;2023-12-29T14:31:06;15.93;;;6.78;;
74849;SDS011;63397;47.480;19.238;2023-12-29T14:34:09;14.77;;;6.35;;
74849;SDS011;63397;47.480;19.238;2023-12-29T14:37:12;15.30;;;5.90;;
74849;SDS011;63397;47.480;19.238;2023-12-29T14:40:14;17.63;;;7.90;;
74849;SDS011;63397;47.480;19.238;2023-12-29T14:43:17;14.85;;;6.57;;
74849;SDS011;63397;47.480;19.238;2023-12-29T14:46:19;14.45;;;7.07;;
74849;SDS011;63397;47.480;19.238;2023-12-29T14:49:23;19.10;;;7.88;;
74849;SDS011;63397;47.480;19.238;2023-12-29T14:52:26;14.17;;;7.93;;
74849;SDS011;63397;47.480;19.238;2023-12-29T14:55:30;19.88;;;7.70;;
74849;SDS011;63397;47.480;19.238;2023-12-29T14:58:32;17.98;;;8.10;;
74849;SDS011;63397;47.480;19.238;2023-12-29T15:01:35;13.70;;;7.20;;
74849;SDS011;63397;47.480;19.238;2023-12-29T15:04:37;16.02;;;6.97;;
74849;SDS011;63397;47.480;19.238;2023-12-29T15:07:40;15.50;;;7.63;;
74849;SDS011;63397;47.480;19.238;2023-12-29T15:10:42;13.50;;;6.40;;
74849;SDS011;63397;47.480;19.238;2023-12-29T15:13:46;13.23;;;7.00;;
74849;SDS011;63397;47.480;19.238;2023-12-29T15:16:48;16.05;;;7.30;;
74849;SDS011;63397;47.480;19.238;2023-12-29T15:19:51;17.15;;;7.35;;
74849;SDS011;63397;47.480;19.238;2023-12-29T15:22:53;15.47;;;7.37;;
74849;SDS011;63397;47.480;19.238;2023-12-29T15:25:57;17.42;;;7.55;;
74849;SDS011;63397;47.480;19.238;2023-12-29T15:28:59;19.95;;;8.75;;
74849;SDS011;63397;47.480;19.238;2023-12-29T15:32:01;17.70;;;8.05;;
74849;SDS011;63397;47.480;19.238;2023-12-29T15:35:04;13.95;;;6.93;;
74849;SDS011;63397;47.480;19.238;2023-12-29T15:38:07;17.33;;;7.33;;
74849;SDS011;63397;47.480;19.238;2023-12-29T15:41:09;16.75;;;7.30;;
74849;SDS011;63397;47.480;19.238;2023-12-29T15:44:11;22.45;;;8.40;;
74849;SDS011;63397;47.480;19.238;2023-12-29T15:47:13;16.20;;;6.43;;
74849;SDS011;63397;47.480;19.238;2023-12-29T15:50:16;15.77;;;6.10;;
74849;SDS011;63397;47.480;19.238;2023-12-29T15:53:18;15.50;;;7.23;;
74849;SDS011;63397;47.480;19.238;2023-12-29T15:56:20;15.05;;;6.88;;
74849;SDS011;63397;47.480;19.238;2023-12-29T15:59:22;15.65;;;7.40;;
74849;SDS011;63397;47.480;19.238;2023-12-29T16:02:25;14.13;;;6.18;;
74849;SDS011;63397;47.480;19.238;2023-12-29T16:05:28;14.70;;;7.03;;
74849;SDS011;63397;47.480;19.238;2023-12-29T16:08:31;16.43;;;7.60;;
74849;SDS011;63397;47.480;19.238;2023-12-29T16:11:34;16.50;;;7.43;;
74849;SDS011;63397;47.480;19.238;2023-12-29T16:14:36;23.02;;;6.95;;
74849;SDS011;63397;47.480;19.238;2023-12-29T16:17:39;15.63;;;7.65;;
74849;SDS011;63397;47.480;19.238;2023-12-29T16:20:41;18.70;;;8.15;;
74849;SDS011;63397;47.480;19.238;2023-12-29T16:23:44;13.93;;;7.13;;
74849;SDS011;63397;47.480;19.238;2023-12-29T16:26:46;15.57;;;7.28;;
74849;SDS011;63397;47.480;19.238;2023-12-29T16:29:49;13.55;;;7.18;;
74849;SDS011;63397;47.480;19.238;2023-12-29T16:32:51;16.00;;;6.68;;
74849;SDS011;63397;47.480;19.238;2023-12-29T16:35:55;16.48;;;7.55;;
74849;SDS011;63397;47.480;19.238;2023-12-29T16:38:57;17.13;;;7.97;;
74849;SDS011;63397;47.480;19.238;2023-12-29T16:41:59;16.20;;;7.43;;
74849;SDS011;63397;47.480;19.238;2023-12-29T16:45:02;24.00;;;9.30;;
74849;SDS011;63397;47.480;19.238;2023-12-29T16:48:05;17.75;;;8.35;;
74849;SDS011;63397;47.480;19.238;2023-12-29T16:51:07;15.55;;;6.93;;
74849;SDS011;63397;47.480;19.238;2023-12-29T16:54:10;15.30;;;8.80;;
74849;SDS011;63397;47.480;19.238;2023-12-29T16:57:12;15.38;;;7.13;;
74849;SDS011;63397;47.480;19.238;2023-12-29T17:00:14;26.42;;;10.52;;
74849;SDS011;63397;47.480;19.238;2023-12-29T17:03:17;29.75;;;13.82;;
74849;SDS011;63397;47.480;19.238;2023-12-29T17:06:19;30.38;;;12.50;;
74849;SDS011;63397;47.480;19.238;2023-12-29T17:09:21;28.50;;;13.53;;
74849;SDS011;63397;47.480;19.238;2023-12-29T17:12:24;24.70;;;11.25;;
74849;SDS011;63397;47.480;19.238;2023-12-29T17:15:26;27.90;;;12.55;;
74849;SDS011;63397;47.480;19.238;2023-12-29T17:18:28;19.55;;;10.32;;
74849;SDS011;63397;47.480;19.238;2023-12-29T17:21:31;36.25;;;14.00;;
74849;SDS011;63397;47.480;19.238;2023-12-29T17:24:34;36.70;;;16.53;;
74849;SDS011;63397;47.480;19.238;2023-12-29T17:27:40;37.05;;;15.50;;
74849;SDS011;63397;47.480;19.238;2023-12-29T17:30:42;30.85;;;14.00;;
74849;SDS011;63397;47.480;19.238;2023-12-29T17:33:45;35.13;;;16.20;;
74849;SDS011;63397;47.480;19.238;2023-12-29T17:36:47;35.35;;;14.10;;
74849;SDS011;63397;47.480;19.238;2023-12-29T17:39:50;34.70;;;14.23;;
74849;SDS011;63397;47.480;19.238;2023-12-29T17:42:52;40.50;;;16.75;;
74849;SDS011;63397;47.480;19.238;2023-12-29T17:45:54;29.52;;;14.00;;
74849;SDS011;63397;47.480;19.238;2023-12-29T17:48:56;33.92;;;15.23;;
74849;SDS011;63397;47.480;19.238;2023-12-29T17:51:59;29.45;;;13.57;;
74849;SDS011;63397;47.480;19.238;2023-12-29T17:55:01;32.40;;;15.53;;
74849;SDS011;63397;47.480;19.238;2023-12-29T17:58:04;39.53;;;16.05;;
74849;SDS011;63397;47.480;19.238;2023-12-29T18:01:06;34.60;;;16.98;;